sensor_id;sensor_type;location;lat;lon;timestamp;temperature;humidity
20680;DHT22;10499;47.494;7.608;2022-10-23T00:01:56;14.10;99.90
20680;DHT22;10499;47.494;7.608;2022-10-23T00:04:23;14.20;99.90
20680;DHT22;10499;47.494;7.608;2022-10-23T00:06:51;14.30;99.90
20680;DHT22;10499;47.494;7.608;2022-10-23T00:09:21;14.20;99.90
20680;DHT22;10499;47.494;7.608;2022-10-23T00:11:48;14.20;99.90
20680;DHT22;10499;47.494;7.608;2022-10-23T00:14:16;14.10;99.90
20680;DHT22;10499;47.494;7.608;2022-10-23T00:16:43;14.10;99.90
20680;DHT22;10499;47.494;7.608;2022-10-23T00:19:08;14.20;99.90
20680;DHT22;10499;47.494;7.608;2022-10-23T00:21:34;14.30;99.90
20680;DHT22;10499;47.494;7.608;2022-10-23T00:24:00;14.30;99.90
20680;DHT22;10499;47.494;7.608;2022-10-23T00:26:26;14.30;99.90
20680;DHT22;10499;47.494;7.608;2022-10-23T00:28:53;14.30;99.90
20680;DHT22;10499;47.494;7.608;2022-10-23T00:31:19;14.30;99.90
20680;DHT22;10499;47.494;7.608;2022-10-23T00:33:46;14.40;99.90
20680;DHT22;10499;47.494;7.608;2022-10-23T00:36:13;14.40;99.90
20680;DHT22;10499;47.494;7.608;2022-10-23T00:38:39;14.50;99.90
20680;DHT22;10499;47.494;7.608;2022-10-23T00:41:06;14.40;99.90
20680;DHT22;10499;47.494;7.608;2022-10-23T00:43:33;14.20;99.90
20680;DHT22;10499;47.494;7.608;2022-10-23T00:45:59;14.30;99.90
20680;DHT22;10499;47.494;7.608;2022-10-23T00:48:27;14.30;99.90
20680;DHT22;10499;47.494;7.608;2022-10-23T00:50:53;14.30;99.90
20680;DHT22;10499;47.494;7.608;2022-10-23T00:53:20;14.30;99.90
20680;DHT22;10499;47.494;7.608;2022-10-23T00:55:48;14.50;99.90
20680;DHT22;10499;47.494;7.608;2022-10-23T00:58:17;14.60;99.90
20680;DHT22;10499;47.494;7.608;2022-10-23T01:00:47;14.60;99.90
20680;DHT22;10499;47.494;7.608;2022-10-23T01:03:15;14.40;99.90
20680;DHT22;10499;47.494;7.608;2022-10-23T01:08:55;14.20;99.90
20680;DHT22;10499;47.494;7.608;2022-10-23T01:11:47;14.10;99.90
20680;DHT22;10499;47.494;7.608;2022-10-23T01:20:10;14.10;99.90
20680;DHT22;10499;47.494;7.608;2022-10-23T01:23:13;14.10;99.90
20680;DHT22;10499;47.494;7.608;2022-10-23T01:26:23;14.00;99.90
20680;DHT22;10499;47.494;7.608;2022-10-23T01:28:43;13.90;99.90
20680;DHT22;10499;47.494;7.608;2022-10-23T01:31:32;13.80;99.90
20680;DHT22;10499;47.494;7.608;2022-10-23T01:34:07;13.60;99.90
20680;DHT22;10499;47.494;7.608;2022-10-23T01:36:36;13.60;99.90
20680;DHT22;10499;47.494;7.608;2022-10-23T01:39:11;13.60;99.90
20680;DHT22;10499;47.494;7.608;2022-10-23T01:41:49;13.60;99.90
20680;DHT22;10499;47.494;7.608;2022-10-23T01:44:43;13.50;99.90
20680;DHT22;10499;47.494;7.608;2022-10-23T01:47:13;13.50;99.90
20680;DHT22;10499;47.494;7.608;2022-10-23T01:49:41;13.40;99.90
20680;DHT22;10499;47.494;7.608;2022-10-23T01:52:10;13.50;99.90
20680;DHT22;10499;47.494;7.608;2022-10-23T01:54:39;13.40;99.90
20680;DHT22;10499;47.494;7.608;2022-10-23T01:57:12;13.40;99.90
20680;DHT22;10499;47.494;7.608;2022-10-23T01:59:44;13.40;99.90
20680;DHT22;10499;47.494;7.608;2022-10-23T02:02:13;13.40;99.90
20680;DHT22;10499;47.494;7.608;2022-10-23T02:04:45;13.40;99.90
20680;DHT22;10499;47.494;7.608;2022-10-23T02:07:12;13.30;99.90
20680;DHT22;10499;47.494;7.608;2022-10-23T02:09:38;13.30;99.90
20680;DHT22;10499;47.494;7.608;2022-10-23T02:12:13;13.10;99.90
20680;DHT22;10499;47.494;7.608;2022-10-23T02:20:15;13.10;99.90
20680;DHT22;10499;47.494;7.608;2022-10-23T02:22:41;13.20;99.90
20680;DHT22;10499;47.494;7.608;2022-10-23T02:25:15;13.10;99.90
20680;DHT22;10499;47.494;7.608;2022-10-23T02:27:52;13.00;99.90
20680;DHT22;10499;47.494;7.608;2022-10-23T02:30:19;13.00;99.90
20680;DHT22;10499;47.494;7.608;2022-10-23T02:32:49;13.00;99.90
20680;DHT22;10499;47.494;7.608;2022-10-23T02:35:17;13.00;99.90
20680;DHT22;10499;47.494;7.608;2022-10-23T02:37:50;13.00;99.90
20680;DHT22;10499;47.494;7.608;2022-10-23T02:40:16;13.00;99.90
20680;DHT22;10499;47.494;7.608;2022-10-23T02:42:47;13.00;99.90
20680;DHT22;10499;47.494;7.608;2022-10-23T02:48:25;13.00;99.90
20680;DHT22;10499;47.494;7.608;2022-10-23T02:51:02;13.20;99.90
20680;DHT22;10499;47.494;7.608;2022-10-23T02:56:27;13.00;99.90
20680;DHT22;10499;47.494;7.608;2022-10-23T03:01:50;12.90;99.90
20680;DHT22;10499;47.494;7.608;2022-10-23T03:04:18;12.90;99.90
20680;DHT22;10499;47.494;7.608;2022-10-23T03:06:45;12.80;99.90
20680;DHT22;10499;47.494;7.608;2022-10-23T03:09:11;12.80;99.90
20680;DHT22;10499;47.494;7.608;2022-10-23T03:11:37;12.80;99.90
20680;DHT22;10499;47.494;7.608;2022-10-23T03:14:03;12.70;99.90
20680;DHT22;10499;47.494;7.608;2022-10-23T03:16:28;12.60;99.90
20680;DHT22;10499;47.494;7.608;2022-10-23T03:18:54;12.50;99.90
20680;DHT22;10499;47.494;7.608;2022-10-23T03:21:20;12.50;99.90
20680;DHT22;10499;47.494;7.608;2022-10-23T03:23:45;12.50;99.90
20680;DHT22;10499;47.494;7.608;2022-10-23T03:26:11;12.50;99.90
20680;DHT22;10499;47.494;7.608;2022-10-23T03:28:37;12.60;99.90
20680;DHT22;10499;47.494;7.608;2022-10-23T03:31:03;12.60;99.90
20680;DHT22;10499;47.494;7.608;2022-10-23T03:33:29;12.60;99.90
20680;DHT22;10499;47.494;7.608;2022-10-23T03:35:55;12.50;99.90
20680;DHT22;10499;47.494;7.608;2022-10-23T03:38:21;12.60;99.90
20680;DHT22;10499;47.494;7.608;2022-10-23T03:40:46;12.50;99.90
20680;DHT22;10499;47.494;7.608;2022-10-23T03:43:12;12.40;99.90
20680;DHT22;10499;47.494;7.608;2022-10-23T03:45:37;12.20;99.90
20680;DHT22;10499;47.494;7.608;2022-10-23T03:48:04;12.20;99.90
20680;DHT22;10499;47.494;7.608;2022-10-23T03:50:30;12.20;99.90
20680;DHT22;10499;47.494;7.608;2022-10-23T03:52:55;12.20;99.90
20680;DHT22;10499;47.494;7.608;2022-10-23T03:55:21;12.40;99.90
20680;DHT22;10499;47.494;7.608;2022-10-23T03:57:47;12.40;99.90
20680;DHT22;10499;47.494;7.608;2022-10-23T04:00:12;12.40;99.90
20680;DHT22;10499;47.494;7.608;2022-10-23T04:02:38;12.30;99.90
20680;DHT22;10499;47.494;7.608;2022-10-23T04:05:04;12.20;99.90
20680;DHT22;10499;47.494;7.608;2022-10-23T04:07:30;12.10;99.90
20680;DHT22;10499;47.494;7.608;2022-10-23T04:09:56;12.20;99.90
20680;DHT22;10499;47.494;7.608;2022-10-23T04:12:22;12.20;99.90
20680;DHT22;10499;47.494;7.608;2022-10-23T04:14:48;12.10;99.90
20680;DHT22;10499;47.494;7.608;2022-10-23T04:17:13;12.10;99.90
20680;DHT22;10499;47.494;7.608;2022-10-23T04:19:45;12.10;99.90
20680;DHT22;10499;47.494;7.608;2022-10-23T04:22:14;12.20;99.90
20680;DHT22;10499;47.494;7.608;2022-10-23T04:24:39;12.00;99.90
20680;DHT22;10499;47.494;7.608;2022-10-23T04:27:11;12.10;99.90
20680;DHT22;10499;47.494;7.608;2022-10-23T04:29:37;12.10;99.90
20680;DHT22;10499;47.494;7.608;2022-10-23T04:32:03;12.00;99.90
20680;DHT22;10499;47.494;7.608;2022-10-23T04:34:29;12.00;99.90
20680;DHT22;10499;47.494;7.608;2022-10-23T04:36:54;11.90;99.90
20680;DHT22;10499;47.494;7.608;2022-10-23T04:39:20;11.80;99.90
20680;DHT22;10499;47.494;7.608;2022-10-23T04:41:45;11.80;99.90
20680;DHT22;10499;47.494;7.608;2022-10-23T04:44:11;11.90;99.90
20680;DHT22;10499;47.494;7.608;2022-10-23T04:46:37;12.00;99.90
20680;DHT22;10499;47.494;7.608;2022-10-23T04:49:03;12.00;99.90
20680;DHT22;10499;47.494;7.608;2022-10-23T04:51:28;11.90;99.90
20680;DHT22;10499;47.494;7.608;2022-10-23T04:53:54;11.90;99.90
20680;DHT22;10499;47.494;7.608;2022-10-23T04:56:19;11.90;99.90
20680;DHT22;10499;47.494;7.608;2022-10-23T04:58:45;11.80;99.90
20680;DHT22;10499;47.494;7.608;2022-10-23T05:01:25;11.90;99.90
20680;DHT22;10499;47.494;7.608;2022-10-23T05:03:51;11.90;99.90
20680;DHT22;10499;47.494;7.608;2022-10-23T05:06:18;12.00;99.90
20680;DHT22;10499;47.494;7.608;2022-10-23T05:08:44;11.90;99.90
20680;DHT22;10499;47.494;7.608;2022-10-23T05:11:10;11.90;99.90
20680;DHT22;10499;47.494;7.608;2022-10-23T05:13:36;11.80;99.90
20680;DHT22;10499;47.494;7.608;2022-10-23T05:16:01;11.70;99.90
20680;DHT22;10499;47.494;7.608;2022-10-23T05:18:43;11.70;99.90
20680;DHT22;10499;47.494;7.608;2022-10-23T05:23:40;11.60;99.90
20680;DHT22;10499;47.494;7.608;2022-10-23T05:26:07;11.50;99.90
20680;DHT22;10499;47.494;7.608;2022-10-23T05:28:32;11.60;99.90
20680;DHT22;10499;47.494;7.608;2022-10-23T05:31:00;11.60;99.90
20680;DHT22;10499;47.494;7.608;2022-10-23T05:33:27;11.60;99.90
20680;DHT22;10499;47.494;7.608;2022-10-23T05:35:59;11.60;99.90
20680;DHT22;10499;47.494;7.608;2022-10-23T05:38:27;11.60;99.90
20680;DHT22;10499;47.494;7.608;2022-10-23T05:40:53;11.60;99.90
20680;DHT22;10499;47.494;7.608;2022-10-23T05:43:19;11.60;99.90
20680;DHT22;10499;47.494;7.608;2022-10-23T05:45:45;11.70;99.90
20680;DHT22;10499;47.494;7.608;2022-10-23T05:48:13;11.70;99.90
20680;DHT22;10499;47.494;7.608;2022-10-23T05:50:39;11.60;99.90
20680;DHT22;10499;47.494;7.608;2022-10-23T05:53:05;11.50;99.90
20680;DHT22;10499;47.494;7.608;2022-10-23T05:55:31;11.50;99.90
20680;DHT22;10499;47.494;7.608;2022-10-23T05:57:57;11.60;99.90
20680;DHT22;10499;47.494;7.608;2022-10-23T06:00:22;11.60;99.90
20680;DHT22;10499;47.494;7.608;2022-10-23T06:02:48;11.60;99.90
20680;DHT22;10499;47.494;7.608;2022-10-23T06:05:14;11.70;99.90
20680;DHT22;10499;47.494;7.608;2022-10-23T06:07:39;11.70;99.90
20680;DHT22;10499;47.494;7.608;2022-10-23T06:10:05;11.70;99.90
20680;DHT22;10499;47.494;7.608;2022-10-23T06:12:31;11.80;99.90
20680;DHT22;10499;47.494;7.608;2022-10-23T06:14:57;11.70;99.90
20680;DHT22;10499;47.494;7.608;2022-10-23T06:17:23;11.80;99.90
20680;DHT22;10499;47.494;7.608;2022-10-23T06:19:48;11.90;99.90
20680;DHT22;10499;47.494;7.608;2022-10-23T06:22:14;11.90;99.90
20680;DHT22;10499;47.494;7.608;2022-10-23T06:24:39;11.80;99.90
20680;DHT22;10499;47.494;7.608;2022-10-23T06:27:05;11.80;99.90
20680;DHT22;10499;47.494;7.608;2022-10-23T06:29:31;11.80;99.90
20680;DHT22;10499;47.494;7.608;2022-10-23T06:31:56;11.80;99.90
20680;DHT22;10499;47.494;7.608;2022-10-23T06:34:22;11.90;99.90
20680;DHT22;10499;47.494;7.608;2022-10-23T06:36:47;11.80;99.90
20680;DHT22;10499;47.494;7.608;2022-10-23T06:39:13;11.80;99.90
20680;DHT22;10499;47.494;7.608;2022-10-23T06:41:39;11.90;99.90
20680;DHT22;10499;47.494;7.608;2022-10-23T06:44:06;11.80;99.90
20680;DHT22;10499;47.494;7.608;2022-10-23T06:46:34;11.90;99.90
20680;DHT22;10499;47.494;7.608;2022-10-23T06:49:00;12.00;99.90
20680;DHT22;10499;47.494;7.608;2022-10-23T06:51:26;12.10;99.90
20680;DHT22;10499;47.494;7.608;2022-10-23T06:53:54;12.20;99.90
20680;DHT22;10499;47.494;7.608;2022-10-23T06:56:20;12.30;99.90
20680;DHT22;10499;47.494;7.608;2022-10-23T06:58:45;12.40;99.90
20680;DHT22;10499;47.494;7.608;2022-10-23T07:01:12;12.40;99.90
20680;DHT22;10499;47.494;7.608;2022-10-23T07:03:37;12.60;99.90
20680;DHT22;10499;47.494;7.608;2022-10-23T07:06:05;12.90;99.90
20680;DHT22;10499;47.494;7.608;2022-10-23T07:08:31;13.20;99.90
20680;DHT22;10499;47.494;7.608;2022-10-23T07:11:00;13.30;99.90
20680;DHT22;10499;47.494;7.608;2022-10-23T07:13:38;13.30;99.90
20680;DHT22;10499;47.494;7.608;2022-10-23T07:16:21;13.70;99.90
20680;DHT22;10499;47.494;7.608;2022-10-23T07:18:59;14.00;99.90
20680;DHT22;10499;47.494;7.608;2022-10-23T07:24:02;14.70;99.90
20680;DHT22;10499;47.494;7.608;2022-10-23T07:26:28;14.80;99.90
20680;DHT22;10499;47.494;7.608;2022-10-23T07:28:57;14.90;99.90
20680;DHT22;10499;47.494;7.608;2022-10-23T07:31:32;15.50;99.90
20680;DHT22;10499;47.494;7.608;2022-10-23T07:36:33;18.70;99.90
20680;DHT22;10499;47.494;7.608;2022-10-23T07:39:02;20.10;97.80
20680;DHT22;10499;47.494;7.608;2022-10-23T07:41:30;21.60;92.50
20680;DHT22;10499;47.494;7.608;2022-10-23T07:43:55;22.00;90.60
20680;DHT22;10499;47.494;7.608;2022-10-23T07:46:21;22.70;87.30
20680;DHT22;10499;47.494;7.608;2022-10-23T07:48:48;23.70;81.10
20680;DHT22;10499;47.494;7.608;2022-10-23T07:51:15;23.20;82.40
20680;DHT22;10499;47.494;7.608;2022-10-23T07:53:41;23.50;81.90
20680;DHT22;10499;47.494;7.608;2022-10-23T07:56:14;24.90;76.40
20680;DHT22;10499;47.494;7.608;2022-10-23T07:58:40;25.60;72.90
20680;DHT22;10499;47.494;7.608;2022-10-23T08:01:18;25.40;69.30
20680;DHT22;10499;47.494;7.608;2022-10-23T08:03:44;25.00;71.90
20680;DHT22;10499;47.494;7.608;2022-10-23T08:06:10;25.60;69.00
20680;DHT22;10499;47.494;7.608;2022-10-23T08:08:35;26.40;65.90
20680;DHT22;10499;47.494;7.608;2022-10-23T08:11:01;26.20;66.10
20680;DHT22;10499;47.494;7.608;2022-10-23T08:13:26;25.70;67.20
20680;DHT22;10499;47.494;7.608;2022-10-23T08:15:52;24.80;70.00
20680;DHT22;10499;47.494;7.608;2022-10-23T08:18:18;24.10;71.60
20680;DHT22;10499;47.494;7.608;2022-10-23T08:20:46;23.60;73.70
20680;DHT22;10499;47.494;7.608;2022-10-23T08:23:15;23.70;74.90
20680;DHT22;10499;47.494;7.608;2022-10-23T08:25:42;23.60;73.80
20680;DHT22;10499;47.494;7.608;2022-10-23T08:28:08;23.70;74.40
20680;DHT22;10499;47.494;7.608;2022-10-23T08:30:35;23.40;75.20
20680;DHT22;10499;47.494;7.608;2022-10-23T08:33:05;23.40;75.80
20680;DHT22;10499;47.494;7.608;2022-10-23T08:35:37;23.10;75.70
20680;DHT22;10499;47.494;7.608;2022-10-23T08:38:03;22.70;77.10
20680;DHT22;10499;47.494;7.608;2022-10-23T08:40:29;22.00;79.50
20680;DHT22;10499;47.494;7.608;2022-10-23T08:45:37;21.40;81.80
20680;DHT22;10499;47.494;7.608;2022-10-23T08:48:32;21.20;82.90
20680;DHT22;10499;47.494;7.608;2022-10-23T08:51:28;20.80;84.70
20680;DHT22;10499;47.494;7.608;2022-10-23T08:56:40;20.20;86.90
20680;DHT22;10499;47.494;7.608;2022-10-23T08:59:16;20.30;86.60
20680;DHT22;10499;47.494;7.608;2022-10-23T09:01:49;20.60;86.20
20680;DHT22;10499;47.494;7.608;2022-10-23T09:04:16;20.90;84.70
20680;DHT22;10499;47.494;7.608;2022-10-23T09:07:00;21.30;83.80
20680;DHT22;10499;47.494;7.608;2022-10-23T09:12:10;20.80;86.80
20680;DHT22;10499;47.494;7.608;2022-10-23T09:17:37;21.20;83.40
20680;DHT22;10499;47.494;7.608;2022-10-23T09:20:27;21.60;82.10
20680;DHT22;10499;47.494;7.608;2022-10-23T09:23:21;22.20;80.80
20680;DHT22;10499;47.494;7.608;2022-10-23T09:25:52;22.70;78.90
20680;DHT22;10499;47.494;7.608;2022-10-23T09:28:26;21.70;81.80
20680;DHT22;10499;47.494;7.608;2022-10-23T09:31:07;22.20;81.80
20680;DHT22;10499;47.494;7.608;2022-10-23T09:33:33;22.20;80.90
20680;DHT22;10499;47.494;7.608;2022-10-23T09:36:18;22.50;81.00
20680;DHT22;10499;47.494;7.608;2022-10-23T09:41:18;23.20;77.40
20680;DHT22;10499;47.494;7.608;2022-10-23T09:43:44;23.80;75.70
20680;DHT22;10499;47.494;7.608;2022-10-23T09:46:10;23.80;74.40
20680;DHT22;10499;47.494;7.608;2022-10-23T09:48:38;24.00;74.70
20680;DHT22;10499;47.494;7.608;2022-10-23T09:51:24;23.80;74.40
20680;DHT22;10499;47.494;7.608;2022-10-23T09:53:52;23.50;75.40
20680;DHT22;10499;47.494;7.608;2022-10-23T09:56:23;23.10;76.60
20680;DHT22;10499;47.494;7.608;2022-10-23T10:01:55;23.90;75.00
20680;DHT22;10499;47.494;7.608;2022-10-23T10:04:37;24.40;73.40
20680;DHT22;10499;47.494;7.608;2022-10-23T10:07:20;24.00;73.40
20680;DHT22;10499;47.494;7.608;2022-10-23T10:09:51;23.30;76.30
20680;DHT22;10499;47.494;7.608;2022-10-23T10:18:13;25.00;70.70
20680;DHT22;10499;47.494;7.608;2022-10-23T10:24:01;27.80;61.80
20680;DHT22;10499;47.494;7.608;2022-10-23T10:26:52;28.20;61.80
20680;DHT22;10499;47.494;7.608;2022-10-23T10:32:49;30.20;56.50
20680;DHT22;10499;47.494;7.608;2022-10-23T10:35:19;30.20;56.30
20680;DHT22;10499;47.494;7.608;2022-10-23T10:48:50;36.50;43.20
20680;DHT22;10499;47.494;7.608;2022-10-23T10:51:46;35.70;44.40
20680;DHT22;10499;47.494;7.608;2022-10-23T10:57:14;33.60;47.60
20680;DHT22;10499;47.494;7.608;2022-10-23T10:59:46;32.20;50.30
20680;DHT22;10499;47.494;7.608;2022-10-23T11:05:31;30.00;55.80
20680;DHT22;10499;47.494;7.608;2022-10-23T11:08:24;31.60;52.80
20680;DHT22;10499;47.494;7.608;2022-10-23T11:11:03;31.80;51.50
20680;DHT22;10499;47.494;7.608;2022-10-23T11:13:37;33.60;48.90
20680;DHT22;10499;47.494;7.608;2022-10-23T11:16:19;34.30;47.40
20680;DHT22;10499;47.494;7.608;2022-10-23T11:19:17;34.00;48.10
20680;DHT22;10499;47.494;7.608;2022-10-23T11:24:59;34.70;45.90
20680;DHT22;10499;47.494;7.608;2022-10-23T11:40:44;34.00;47.70
20680;DHT22;10499;47.494;7.608;2022-10-23T11:43:10;33.50;49.90
20680;DHT22;10499;47.494;7.608;2022-10-23T11:45:38;32.40;50.00
20680;DHT22;10499;47.494;7.608;2022-10-23T12:01:41;26.80;63.70
20680;DHT22;10499;47.494;7.608;2022-10-23T12:06:58;26.30;65.30
20680;DHT22;10499;47.494;7.608;2022-10-23T12:12:15;26.40;67.80
20680;DHT22;10499;47.494;7.608;2022-10-23T12:14:47;26.10;68.40
20680;DHT22;10499;47.494;7.608;2022-10-23T12:17:29;25.40;70.40
20680;DHT22;10499;47.494;7.608;2022-10-23T12:20:17;25.30;71.60
20680;DHT22;10499;47.494;7.608;2022-10-23T12:31:01;25.90;69.10
20680;DHT22;10499;47.494;7.608;2022-10-23T12:33:38;26.00;69.40
20680;DHT22;10499;47.494;7.608;2022-10-23T12:39:50;26.10;69.30
20680;DHT22;10499;47.494;7.608;2022-10-23T12:42:23;25.90;69.80
20680;DHT22;10499;47.494;7.608;2022-10-23T12:47:39;26.30;69.10
20680;DHT22;10499;47.494;7.608;2022-10-23T12:50:17;26.70;67.70
20680;DHT22;10499;47.494;7.608;2022-10-23T12:53:14;26.50;67.80
20680;DHT22;10499;47.494;7.608;2022-10-23T12:55:58;25.90;67.80
20680;DHT22;10499;47.494;7.608;2022-10-23T12:58:30;25.20;71.00
20680;DHT22;10499;47.494;7.608;2022-10-23T13:00:59;24.70;73.30
20680;DHT22;10499;47.494;7.608;2022-10-23T13:03:27;25.20;72.50
20680;DHT22;10499;47.494;7.608;2022-10-23T13:05:54;25.50;71.70
20680;DHT22;10499;47.494;7.608;2022-10-23T13:08:33;25.40;71.60
20680;DHT22;10499;47.494;7.608;2022-10-23T13:11:00;25.30;72.70
20680;DHT22;10499;47.494;7.608;2022-10-23T13:13:26;25.40;72.40
20680;DHT22;10499;47.494;7.608;2022-10-23T13:15:52;25.30;73.60
20680;DHT22;10499;47.494;7.608;2022-10-23T13:18:18;25.20;75.20
20680;DHT22;10499;47.494;7.608;2022-10-23T13:23:29;27.10;71.00
20680;DHT22;10499;47.494;7.608;2022-10-23T13:25:59;28.30;65.00
20680;DHT22;10499;47.494;7.608;2022-10-23T13:28:33;30.20;57.20
20680;DHT22;10499;47.494;7.608;2022-10-23T13:31:03;30.80;58.50
20680;DHT22;10499;47.494;7.608;2022-10-23T13:33:44;30.90;58.40
20680;DHT22;10499;47.494;7.608;2022-10-23T13:38:44;29.80;58.90
20680;DHT22;10499;47.494;7.608;2022-10-23T13:41:18;29.80;59.50
20680;DHT22;10499;47.494;7.608;2022-10-23T13:43:46;30.10;58.20
20680;DHT22;10499;47.494;7.608;2022-10-23T13:46:16;30.20;58.30
20680;DHT22;10499;47.494;7.608;2022-10-23T13:48:42;30.90;56.80
20680;DHT22;10499;47.494;7.608;2022-10-23T13:51:34;31.00;56.90
20680;DHT22;10499;47.494;7.608;2022-10-23T13:54:01;30.50;57.90
20680;DHT22;10499;47.494;7.608;2022-10-23T13:56:27;30.20;57.70
20680;DHT22;10499;47.494;7.608;2022-10-23T13:58:59;28.70;60.60
20680;DHT22;10499;47.494;7.608;2022-10-23T14:01:33;28.10;62.60
20680;DHT22;10499;47.494;7.608;2022-10-23T14:04:00;27.30;66.00
20680;DHT22;10499;47.494;7.608;2022-10-23T14:06:30;26.50;67.80
20680;DHT22;10499;47.494;7.608;2022-10-23T14:08:56;26.20;68.80
20680;DHT22;10499;47.494;7.608;2022-10-23T14:11:27;26.00;69.60
20680;DHT22;10499;47.494;7.608;2022-10-23T14:13:56;25.70;71.20
20680;DHT22;10499;47.494;7.608;2022-10-23T14:16:25;25.50;71.90
20680;DHT22;10499;47.494;7.608;2022-10-23T14:18:54;25.20;72.20
20680;DHT22;10499;47.494;7.608;2022-10-23T14:21:24;24.80;73.60
20680;DHT22;10499;47.494;7.608;2022-10-23T14:23:53;24.50;75.40
20680;DHT22;10499;47.494;7.608;2022-10-23T14:26:29;24.20;75.80
20680;DHT22;10499;47.494;7.608;2022-10-23T14:28:57;24.00;76.80
20680;DHT22;10499;47.494;7.608;2022-10-23T14:31:28;23.70;77.60
20680;DHT22;10499;47.494;7.608;2022-10-23T14:33:57;23.20;79.10
20680;DHT22;10499;47.494;7.608;2022-10-23T14:36:33;23.10;80.10
20680;DHT22;10499;47.494;7.608;2022-10-23T14:39:04;22.90;80.50
20680;DHT22;10499;47.494;7.608;2022-10-23T14:41:33;22.70;81.00
20680;DHT22;10499;47.494;7.608;2022-10-23T14:43:59;22.60;81.40
20680;DHT22;10499;47.494;7.608;2022-10-23T14:46:35;22.50;81.40
20680;DHT22;10499;47.494;7.608;2022-10-23T14:49:04;22.00;83.20
20680;DHT22;10499;47.494;7.608;2022-10-23T14:51:39;21.80;84.40
20680;DHT22;10499;47.494;7.608;2022-10-23T14:54:05;21.80;85.50
20680;DHT22;10499;47.494;7.608;2022-10-23T14:56:38;22.00;83.80
20680;DHT22;10499;47.494;7.608;2022-10-23T14:59:05;22.10;83.50
20680;DHT22;10499;47.494;7.608;2022-10-23T15:01:44;22.20;84.40
20680;DHT22;10499;47.494;7.608;2022-10-23T15:04:12;22.00;85.10
20680;DHT22;10499;47.494;7.608;2022-10-23T15:06:44;22.00;84.60
20680;DHT22;10499;47.494;7.608;2022-10-23T15:09:12;21.80;85.00
20680;DHT22;10499;47.494;7.608;2022-10-23T15:11:42;21.90;86.10
20680;DHT22;10499;47.494;7.608;2022-10-23T15:14:14;21.80;85.40
20680;DHT22;10499;47.494;7.608;2022-10-23T15:16:46;21.70;86.90
20680;DHT22;10499;47.494;7.608;2022-10-23T15:19:16;21.60;87.20
20680;DHT22;10499;47.494;7.608;2022-10-23T15:21:51;21.50;87.20
20680;DHT22;10499;47.494;7.608;2022-10-23T15:24:20;21.60;85.70
20680;DHT22;10499;47.494;7.608;2022-10-23T15:26:52;21.70;83.90
20680;DHT22;10499;47.494;7.608;2022-10-23T15:29:18;21.40;88.20
20680;DHT22;10499;47.494;7.608;2022-10-23T15:31:53;21.30;88.70
20680;DHT22;10499;47.494;7.608;2022-10-23T15:34:25;21.70;79.50
20680;DHT22;10499;47.494;7.608;2022-10-23T15:36:52;22.20;73.90
20680;DHT22;10499;47.494;7.608;2022-10-23T15:39:21;22.70;69.40
20680;DHT22;10499;47.494;7.608;2022-10-23T15:41:49;22.80;71.50
20680;DHT22;10499;47.494;7.608;2022-10-23T15:44:17;22.70;78.20
20680;DHT22;10499;47.494;7.608;2022-10-23T15:46:43;22.50;74.90
20680;DHT22;10499;47.494;7.608;2022-10-23T15:49:08;22.40;77.00
20680;DHT22;10499;47.494;7.608;2022-10-23T15:51:35;22.40;71.30
20680;DHT22;10499;47.494;7.608;2022-10-23T15:54:02;22.80;65.80
20680;DHT22;10499;47.494;7.608;2022-10-23T15:56:27;23.10;62.90
20680;DHT22;10499;47.494;7.608;2022-10-23T15:58:53;23.00;68.20
20680;DHT22;10499;47.494;7.608;2022-10-23T16:01:19;23.50;56.90
20680;DHT22;10499;47.494;7.608;2022-10-23T16:03:44;24.10;56.30
20680;DHT22;10499;47.494;7.608;2022-10-23T16:06:12;24.50;55.60
20680;DHT22;10499;47.494;7.608;2022-10-23T16:08:39;24.50;55.30
20680;DHT22;10499;47.494;7.608;2022-10-23T16:11:18;24.30;55.50
20680;DHT22;10499;47.494;7.608;2022-10-23T16:13:50;24.50;54.80
20680;DHT22;10499;47.494;7.608;2022-10-23T16:16:24;24.40;54.70
20680;DHT22;10499;47.494;7.608;2022-10-23T16:18:53;24.50;54.50
20680;DHT22;10499;47.494;7.608;2022-10-23T16:21:23;24.50;53.90
20680;DHT22;10499;47.494;7.608;2022-10-23T16:23:55;24.60;53.70
20680;DHT22;10499;47.494;7.608;2022-10-23T16:26:26;24.60;53.80
20680;DHT22;10499;47.494;7.608;2022-10-23T16:29:03;24.40;54.80
20680;DHT22;10499;47.494;7.608;2022-10-23T16:31:33;24.50;53.10
20680;DHT22;10499;47.494;7.608;2022-10-23T16:34:02;24.80;53.80
20680;DHT22;10499;47.494;7.608;2022-10-23T16:36:31;24.60;54.40
20680;DHT22;10499;47.494;7.608;2022-10-23T16:39:18;24.50;54.70
20680;DHT22;10499;47.494;7.608;2022-10-23T16:41:45;24.40;53.90
20680;DHT22;10499;47.494;7.608;2022-10-23T16:44:16;24.40;54.30
20680;DHT22;10499;47.494;7.608;2022-10-23T16:46:44;24.50;53.50
20680;DHT22;10499;47.494;7.608;2022-10-23T16:49:10;24.40;53.70
20680;DHT22;10499;47.494;7.608;2022-10-23T16:51:46;24.70;52.60
20680;DHT22;10499;47.494;7.608;2022-10-23T16:54:19;24.90;51.80
20680;DHT22;10499;47.494;7.608;2022-10-23T16:56:46;24.80;51.80
20680;DHT22;10499;47.494;7.608;2022-10-23T16:59:12;24.70;52.60
20680;DHT22;10499;47.494;7.608;2022-10-23T17:01:38;24.50;54.80
20680;DHT22;10499;47.494;7.608;2022-10-23T17:04:05;24.10;59.20
20680;DHT22;10499;47.494;7.608;2022-10-23T17:06:32;23.60;65.90
20680;DHT22;10499;47.494;7.608;2022-10-23T17:08:59;22.90;70.10
20680;DHT22;10499;47.494;7.608;2022-10-23T17:11:27;22.40;73.40
20680;DHT22;10499;47.494;7.608;2022-10-23T17:13:56;22.10;75.20
20680;DHT22;10499;47.494;7.608;2022-10-23T17:16:34;21.80;76.90
20680;DHT22;10499;47.494;7.608;2022-10-23T17:19:01;21.70;77.80
20680;DHT22;10499;47.494;7.608;2022-10-23T17:21:31;21.40;79.10
20680;DHT22;10499;47.494;7.608;2022-10-23T17:24:00;21.20;80.00
20680;DHT22;10499;47.494;7.608;2022-10-23T17:26:44;21.00;80.90
20680;DHT22;10499;47.494;7.608;2022-10-23T17:29:11;20.90;81.40
20680;DHT22;10499;47.494;7.608;2022-10-23T17:31:47;20.90;80.50
20680;DHT22;10499;47.494;7.608;2022-10-23T17:34:20;20.90;81.00
20680;DHT22;10499;47.494;7.608;2022-10-23T17:36:50;21.10;73.20
20680;DHT22;10499;47.494;7.608;2022-10-23T17:39:22;22.30;67.80
20680;DHT22;10499;47.494;7.608;2022-10-23T17:41:48;22.90;63.80
20680;DHT22;10499;47.494;7.608;2022-10-23T17:44:17;23.10;62.40
20680;DHT22;10499;47.494;7.608;2022-10-23T17:46:43;23.40;61.40
20680;DHT22;10499;47.494;7.608;2022-10-23T17:49:09;23.90;58.90
20680;DHT22;10499;47.494;7.608;2022-10-23T17:51:35;23.90;59.00
20680;DHT22;10499;47.494;7.608;2022-10-23T17:54:05;23.90;58.70
20680;DHT22;10499;47.494;7.608;2022-10-23T17:56:33;24.00;58.10
20680;DHT22;10499;47.494;7.608;2022-10-23T17:59:05;24.10;57.30
20680;DHT22;10499;47.494;7.608;2022-10-23T18:01:31;24.10;57.80